Time;durP1;ratioP1;P1;durP2;ratioP2;P2;SDS_P1;SDS_P2;PMS_P1;PMS_P2;Temp;Humidity;BMP_temperature;BMP_pressure;BME280_temperature;BME280_humidity;BME280_pressure;Samples;Min_cycle;Max_cycle;Signal;HPM_P1;HPM_P2
2021/06/07 00:02:17;;;;;;;8.90;8.20;;;;;;;18.84;71.77;96978.06;4966815;28;20110;-66
2021/06/07 00:04:43;;;;;;;10.38;9.27;;;;;;;19.22;71.92;97030.75;4980366;28;20113;-66
2021/06/07 00:07:14;;;;;;;11.38;8.43;;;;;;;19.31;71.44;97022.63;4985442;28;20052;-67
2021/06/07 00:09:41;;;;;;;9.02;8.32;;;;;;;18.73;71.26;96950.16;4984289;28;20586;-67
2021/06/07 00:12:14;;;;;;;9.75;8.95;;;;;;;19.01;71.31;96991.00;4984167;28;20424;-66
2021/06/07 00:14:39;;;;;;;9.80;8.70;;;;;;;18.81;71.53;96954.44;4983994;28;20057;-65
2021/06/07 00:17:05;;;;;;;10.35;8.57;;;;;;;19.17;71.63;97022.78;4984058;28;20073;-66
2021/06/07 00:19:33;;;;;;;9.52;8.30;;;;;;;19.19;71.85;97017.56;4985739;28;20121;-66
2021/06/07 00:21:59;;;;;;;8.77;7.85;;;;;;;19.18;72.12;97007.56;4985935;28;20034;-67
2021/06/07 00:24:25;;;;;;;8.85;8.05;;;;;;;19.19;71.97;96999.94;4986033;28;20030;-67
2021/06/07 00:26:51;;;;;;;8.68;7.93;;;;;;;19.01;71.81;96980.56;4984029;28;20420;-66
2021/06/07 00:29:17;;;;;;;9.07;8.18;;;;;;;18.73;71.97;96975.41;4985764;28;20116;-67
2021/06/07 00:31:43;;;;;;;10.20;8.30;;;;;;;19.10;71.96;97008.91;4985515;28;20077;-66
2021/06/07 00:34:10;;;;;;;9.70;8.73;;;;;;;19.03;72.39;97011.81;4983528;28;20034;-67
2021/06/07 00:36:36;;;;;;;9.32;8.52;;;;;;;18.95;72.76;97010.34;4983442;28;20034;-67
2021/06/07 00:39:06;;;;;;;8.68;7.88;;;;;;;18.98;73.09;97019.94;4985300;28;20422;-67
2021/06/07 00:41:32;;;;;;;8.68;7.88;;;;;;;19.02;72.75;97015.84;4983978;28;20501;-66
2021/06/07 00:43:59;;;;;;;10.10;8.70;;;;;;;19.01;73.10;97019.88;4985398;28;20034;-66
2021/06/07 00:46:26;;;;;;;10.25;9.23;;;;;;;19.07;72.56;97012.56;4985071;28;20118;-66
2021/06/07 00:48:52;;;;;;;10.13;8.93;;;;;;;16.81;75.75;96754.72;4985503;28;20076;-65
2021/06/07 00:51:18;;;;;;;13.07;9.57;;;;;;;18.43;77.37;97020.34;4985118;28;20046;-66
2021/06/07 00:53:43;;;;;;;11.25;9.15;;;;;;;18.62;76.16;97011.25;4983369;28;20026;-66
2021/06/07 00:56:11;;;;;;;10.68;8.68;;;;;;;17.80;75.67;96884.63;4984533;28;21000;-66
2021/06/07 00:58:46;;;;;;;10.13;9.13;;;;;;;18.62;74.72;97014.06;4983995;28;20046;-67
2021/06/07 01:01:14;;;;;;;9.45;8.70;;;;;;;18.11;74.72;96978.69;4983247;28;20042;-66
2021/06/07 01:03:42;;;;;;;10.27;9.27;;;;;;;18.45;74.09;96956.22;4985225;28;20034;-66
2021/06/07 01:06:09;;;;;;;9.27;8.35;;;;;;;18.49;74.56;96953.38;4984784;28;20046;-66
2021/06/07 01:08:35;;;;;;;10.13;9.02;;;;;;;18.80;74.70;97008.97;4983360;28;20034;-66
2021/06/07 01:11:00;;;;;;;9.27;8.40;;;;;;;18.87;74.32;97002.47;4984638;28;20049;-65
2021/06/07 01:13:26;;;;;;;9.63;8.63;;;;;;;18.72;75.05;97007.50;4983475;28;20038;-65
2021/06/07 01:15:53;;;;;;;9.18;8.38;;;;;;;18.58;75.78;97002.13;4984812;28;20042;-65
2021/06/07 01:18:20;;;;;;;9.27;8.20;;;;;;;18.63;75.45;97004.44;4984817;28;20034;-66
2021/06/07 01:20:48;;;;;;;9.07;8.20;;;;;;;18.62;75.46;96991.63;4982933;28;20074;-66
2021/06/07 01:23:14;;;;;;;9.75;8.85;;;;;;;17.84;74.86;96857.38;4983229;28;20022;-65
2021/06/07 01:25:42;;;;;;;10.20;8.93;;;;;;;18.84;74.49;96992.88;4984207;28;20132;-66
2021/06/07 01:28:11;;;;;;;8.40;7.75;;;;;;;18.65;74.45;96979.53;4984902;28;20041;-66
2021/06/07 01:30:40;;;;;;;9.52;8.63;;;;;;;18.81;74.20;97002.16;4984382;28;20039;-66
2021/06/07 01:33:07;;;;;;;11.60;9.15;;;;;;;18.77;74.46;97004.22;4985054;28;20026;-67
2021/06/07 01:35:33;;;;;;;9.98;9.07;;;;;;;18.59;75.60;96992.47;4982729;28;20046;-66
2021/06/07 01:37:59;;;;;;;13.82;9.88;;;;;;;18.08;75.94;96929.06;4984469;28;20490;-66
2021/06/07 01:40:32;;;;;;;9.45;8.45;;;;;;;18.53;76.08;96996.97;4982441;28;20042;-66
2021/06/07 01:42:58;;;;;;;9.73;8.70;;;;;;;18.67;75.84;96999.56;4984438;28;20038;-67
2021/06/07 01:45:26;;;;;;;11.20;9.38;;;;;;;18.70;75.36;97004.31;4984116;28;20564;-67
2021/06/07 01:47:53;;;;;;;10.60;8.68;;;;;;;18.73;75.10;97002.69;4982875;28;20477;-66
2021/06/07 01:50:19;;;;;;;10.02;8.68;;;;;;;18.64;75.44;97000.41;4983857;28;20034;-66
2021/06/07 01:52:48;;;;;;;9.45;8.07;;;;;;;18.60;75.81;96996.88;4984566;28;20061;-66
2021/06/07 01:55:22;;;;;;;11.45;8.75;;;;;;;18.57;76.13;96994.94;4983364;28;20536;-66
2021/06/07 01:57:49;;;;;;;9.70;8.82;;;;;;;18.66;75.28;97003.59;4984230;28;20416;-66
2021/06/07 02:00:29;;;;;;;9.25;8.10;;;;;;;17.61;75.06;96831.25;4983690;28;20113;-66
2021/06/07 02:02:55;;;;;;;9.00;8.20;;;;;;;18.69;75.30;96999.94;4982627;28;20572;-66
2021/06/07 02:05:24;;;;;;;9.90;8.75;;;;;;;18.62;75.53;97008.44;4983669;28;20129;-65
2021/06/07 02:07:52;;;;;;;9.80;8.90;;;;;;;18.70;75.48;97006.34;4982366;28;20101;-67
2021/06/07 02:10:19;;;;;;;10.52;9.52;;;;;;;18.20;75.55;96975.38;4984004;28;20035;-65
2021/06/07 02:12:45;;;;;;;9.80;8.38;;;;;;;18.43;76.37;97006.31;4982008;28;20034;-65
2021/06/07 02:15:12;;;;;;;14.13;9.00;;;;;;;18.49;76.46;96993.44;4983372;28;20505;-66
2021/06/07 02:17:38;;;;;;;9.52;8.50;;;;;;;18.48;76.66;97002.28;4983765;28;20559;-66
2021/06/07 02:20:13;;;;;;;9.55;8.50;;;;;;;17.78;76.65;96898.25;4983595;28;20610;-66
2021/06/07 02:22:41;;;;;;;10.68;8.80;;;;;;;18.47;76.92;97006.28;4983574;28;20038;-66
2021/06/07 02:25:08;;;;;;;12.00;8.57;;;;;;;18.48;77.08;97008.66;4983369;28;20157;-65
2021/06/07 02:27:34;;;;;;;10.25;9.38;;;;;;;18.39;77.41;97011.22;4983924;28;20601;-66
2021/06/07 02:30:03;;;;;;;10.57;9.55;;;;;;;18.42;77.97;97017.97;4984210;28;20120;-66
2021/06/07 02:32:28;;;;;;;9.75;8.90;;;;;;;17.88;77.57;96918.97;4987593;28;20043;-65
2021/06/07 02:34:54;;;;;;;10.95;8.85;;;;;;;18.36;77.07;96985.97;4986648;28;20053;-65
2021/06/07 02:37:19;;;;;;;10.23;9.15;;;;;;;18.49;76.66;96999.06;4987656;28;20023;-66
2021/06/07 02:39:45;;;;;;;10.90;9.30;;;;;;;17.89;76.66;96903.75;4985996;28;20545;-66
2021/06/07 02:42:12;;;;;;;10.02;9.13;;;;;;;18.34;76.53;96975.19;4985935;28;20506;-66
2021/06/07 02:44:39;;;;;;;11.10;9.88;;;;;;;17.85;80.74;97015.88;4986275;28;20034;-65
2021/06/07 02:47:05;;;;;;;11.95;10.20;;;;;;;17.32;82.65;96942.03;4987814;28;20066;-66
2021/06/07 02:49:31;;;;;;;11.30;10.02;;;;;;;18.06;82.13;97014.84;4987698;28;20572;-66
2021/06/07 02:51:57;;;;;;;11.98;10.82;;;;;;;18.00;83.34;97010.91;4985310;28;20034;-66
2021/06/07 02:54:22;;;;;;;12.07;10.82;;;;;;;17.60;83.37;96948.16;4985636;28;20030;-66
2021/06/07 02:56:48;;;;;;;14.23;11.38;;;;;;;17.15;84.93;96917.84;4987150;28;20580;-66
2021/06/07 02:59:14;;;;;;;15.45;11.30;;;;;;;17.61;86.78;97016.16;4985556;28;20053;-66
2021/06/07 03:01:40;;;;;;;12.35;11.15;;;;;;;17.89;84.99;97015.84;4985569;28;20524;-66
2021/06/07 03:04:05;;;;;;;12.07;10.93;;;;;;;18.05;83.13;97016.06;4987337;28;20034;-66
2021/06/07 03:06:31;;;;;;;11.23;10.13;;;;;;;18.19;82.28;97023.47;4986795;28;20031;-65
2021/06/07 03:08:56;;;;;;;13.55;10.90;;;;;;;18.29;81.42;97017.72;4985272;28;20185;-65
2021/06/07 03:11:22;;;;;;;11.25;10.20;;;;;;;18.41;80.45;97024.81;4986474;28;20477;-67
2021/06/07 03:13:47;;;;;;;10.88;9.77;;;;;;;18.60;79.28;97012.91;5001585;28;20489;-67
2021/06/07 03:16:13;;;;;;;10.68;9.70;;;;;;;18.70;78.13;97015.56;4985061;28;20030;-67
2021/06/07 03:18:39;;;;;;;10.23;9.23;;;;;;;18.12;77.23;96929.03;4986782;28;20034;-66
2021/06/07 03:21:06;;;;;;;11.18;9.85;;;;;;;18.63;78.01;97010.06;4986811;28;20065;-67
2021/06/07 03:23:34;;;;;;;13.32;9.68;;;;;;;18.45;77.02;96947.78;4985385;28;20034;-65
2021/06/07 03:26:00;;;;;;;10.18;9.27;;;;;;;18.90;76.41;97024.06;4986261;28;20129;-64
2021/06/07 03:28:26;;;;;;;10.57;9.55;;;;;;;19.02;75.98;97032.69;4986626;28;20121;-65
2021/06/07 03:30:53;;;;;;;11.20;9.55;;;;;;;19.07;75.38;97025.78;4984702;28;20059;-66
2021/06/07 03:33:19;;;;;;;12.55;9.35;;;;;;;19.11;74.87;97027.31;4985856;28;20070;-65
2021/06/07 03:35:46;;;;;;;10.90;9.88;;;;;;;19.10;75.12;97028.56;4985947;28;20160;-64
2021/06/07 03:38:13;;;;;;;10.10;9.27;;;;;;;18.66;74.97;96975.53;4986458;28;20034;-65
2021/06/07 03:40:41;;;;;;;9.45;8.57;;;;;;;18.33;75.03;96928.72;4983997;28;20038;-66
2021/06/07 03:43:07;;;;;;;9.52;8.43;;;;;;;19.13;74.83;97038.94;4984629;28;20046;-66
2021/06/07 03:45:34;;;;;;;10.75;9.55;;;;;;;18.95;73.48;96971.03;4984322;28;20039;-66
2021/06/07 03:48:00;;;;;;;19.90;9.23;;;;;;;19.41;72.81;97015.22;4986212;28;20030;-66
2021/06/07 03:50:27;;;;;;;9.32;8.50;;;;;;;19.63;71.91;97018.41;4985740;28;20069;-66
2021/06/07 03:52:53;;;;;;;11.13;9.27;;;;;;;19.83;71.04;97027.66;4986033;28;20485;-66
2021/06/07 03:55:21;;;;;;;10.48;9.50;;;;;;;19.78;71.89;97033.78;4985595;28;20038;-65
2021/06/07 03:57:46;;;;;;;9.55;8.73;;;;;;;19.51;71.01;96977.69;4985018;28;20128;-67
2021/06/07 04:00:16;;;;;;;8.90;8.10;;;;;;;19.83;71.45;97024.84;4984049;28;20524;-66
2021/06/07 04:02:42;;;;;;;13.63;9.32;;;;;;;19.62;70.88;96980.31;4985813;28;20042;-66
2021/06/07 04:05:09;;;;;;;10.85;9.70;;;;;;;19.99;70.98;97010.88;4985357;28;20031;-66
2021/06/07 04:07:35;;;;;;;13.45;10.30;;;;;;;19.55;70.83;96928.63;4984950;28;20367;-67
2021/06/07 04:10:04;;;;;;;13.82;9.05;;;;;;;20.30;70.73;97020.69;4985432;28;20026;-67
2021/06/07 04:12:30;;;;;;;11.32;10.15;;;;;;;19.51;71.98;96929.91;4985406;28;20030;-68
2021/06/07 04:14:55;;;;;;;12.98;10.30;;;;;;;20.25;70.87;97012.78;4985813;28;20508;-66
2021/06/07 04:17:21;;;;;;;12.27;10.18;;;;;;;20.36;69.95;97007.72;4985261;28;20135;-67
2021/06/07 04:19:46;;;;;;;18.98;9.85;;;;;;;20.66;68.32;97061.69;4985653;28;20050;-65
2021/06/07 04:22:12;;;;;;;10.77;9.48;;;;;;;20.87;66.92;97027.44;4985772;28;20046;-67
2021/06/07 04:24:37;;;;;;;12.05;9.40;;;;;;;21.17;65.75;97028.34;4985476;28;20041;-66
2021/06/07 04:27:04;;;;;;;11.80;10.35;;;;;;;21.35;65.91;97031.53;4984985;28;20039;-68
2021/06/07 04:29:29;;;;;;;19.48;10.40;;;;;;;21.50;64.97;97030.72;4985556;28;20037;-68
2021/06/07 04:31:55;;;;;;;12.02;9.63;;;;;;;21.56;64.21;97028.94;4983613;28;20037;-68
2021/06/07 04:34:20;;;;;;;13.68;9.88;;;;;;;21.68;63.46;97050.78;4983988;28;20042;-68
2021/06/07 04:36:45;;;;;;;10.30;9.48;;;;;;;21.82;62.67;97047.59;4985226;28;20205;-68
2021/06/07 04:39:11;;;;;;;10.10;9.10;;;;;;;21.06;62.32;96949.75;4983858;28;20030;-66
2021/06/07 04:41:37;;;;;;;9.35;8.52;;;;;;;21.81;61.03;97043.22;4984754;28;20050;-68
2021/06/07 04:44:03;;;;;;;9.18;7.50;;;;;;;21.85;59.99;97024.16;4983717;28;20496;-65
2021/06/07 04:46:28;;;;;;;11.02;9.90;;;;;;;22.09;60.31;97035.97;4983260;28;20034;-68
2021/06/07 04:48:54;;;;;;;10.23;9.38;;;;;;;22.10;60.85;97035.53;4983530;28;20041;-66
2021/06/07 04:51:20;;;;;;;9.55;8.55;;;;;;;21.88;61.71;97051.47;4984784;28;20501;-66
2021/06/07 04:53:45;;;;;;;13.40;8.68;;;;;;;22.02;60.77;97042.59;4984059;28;20042;-68
2021/06/07 04:56:11;;;;;;;9.93;9.02;;;;;;;21.87;60.22;97001.94;4983507;28;20137;-69
2021/06/07 04:58:36;;;;;;;9.75;8.75;;;;;;;22.22;60.03;97043.22;4984702;28;20450;-68
2021/06/07 05:01:06;;;;;;;11.52;9.48;;;;;;;21.82;60.81;96996.84;4982470;28;20062;-67
2021/06/07 05:03:32;;;;;;;11.07;9.55;;;;;;;22.19;60.70;97041.31;4984733;28;20034;-68
2021/06/07 05:05:59;;;;;;;11.25;9.95;;;;;;;22.07;61.28;97042.06;4984447;28;20072;-68
2021/06/07 05:08:26;;;;;;;10.85;9.75;;;;;;;22.14;60.59;97041.88;4984607;28;20057;-68
2021/06/07 05:10:53;;;;;;;11.93;10.18;;;;;;;22.38;59.62;97062.94;4984307;28;20034;-68
2021/06/07 05:13:18;;;;;;;12.18;9.57;;;;;;;22.51;60.31;97042.44;4983130;28;20026;-69
2021/06/07 05:15:44;;;;;;;9.80;8.98;;;;;;;22.55;59.15;97048.78;4982711;28;20042;-68
2021/06/07 05:18:11;;;;;;;13.32;9.15;;;;;;;22.51;59.78;97048.06;4984572;28;20037;-68
2021/06/07 05:20:36;;;;;;;20.40;10.05;;;;;;;22.12;59.88;97010.50;4982498;28;20105;-68
2021/06/07 05:23:03;;;;;;;14.25;9.52;;;;;;;22.41;59.74;97030.97;4983090;28;20565;-67
2021/06/07 05:25:31;;;;;;;13.40;9.07;;;;;;;22.59;60.04;97053.06;4982465;28;20112;-68
2021/06/07 05:27:57;;;;;;;12.93;10.48;;;;;;;22.45;62.67;97062.75;4984538;28;20565;-67
2021/06/07 05:30:24;;;;;;;15.68;10.82;;;;;;;21.94;63.96;97018.66;4984504;28;20054;-67
2021/06/07 05:32:50;;;;;;;13.18;11.15;;;;;;;22.39;64.21;97070.19;4984901;28;20030;-68
2021/06/07 05:35:17;;;;;;;16.40;11.45;;;;;;;22.26;64.45;97055.22;4983980;28;20045;-68
2021/06/07 05:37:44;;;;;;;12.50;10.88;;;;;;;20.23;64.93;96750.78;4999880;28;20297;-69
2021/06/07 05:40:11;;;;;;;11.90;10.90;;;;;;;22.29;64.97;97065.63;4998562;28;20050;-67
2021/06/07 05:42:37;;;;;;;11.80;10.57;;;;;;;22.32;65.17;97058.28;4984568;28;20521;-67
2021/06/07 05:45:06;;;;;;;11.60;10.50;;;;;;;22.46;64.50;97053.03;4998872;28;20045;-66
2021/06/07 05:47:32;;;;;;;10.93;9.93;;;;;;;22.65;64.24;97053.31;4982716;28;20216;-69
2021/06/07 05:49:57;;;;;;;20.35;17.55;;;;;;;22.88;63.33;97050.19;4980033;28;20377;-63
2021/06/07 05:52:23;;;;;;;12.18;10.15;;;;;;;22.93;61.56;96995.94;4980588;28;20070;-64
2021/06/07 05:54:48;;;;;;;14.70;10.48;;;;;;;23.62;60.64;97055.03;4982182;28;20612;-65
2021/06/07 05:57:13;;;;;;;14.60;9.93;;;;;;;23.79;56.88;97035.84;4967594;28;20568;-63
2021/06/07 05:59:39;;;;;;;9.75;8.77;;;;;;;23.55;52.79;96975.28;4964581;28;20552;-65
2021/06/07 06:02:06;;;;;;;10.18;8.02;;;;;;;24.25;51.26;97045.56;4964534;28;20093;-57
2021/06/07 06:04:32;;;;;;;11.00;8.73;;;;;;;23.85;51.07;96955.56;4965169;28;20494;-63
2021/06/07 06:06:58;;;;;;;19.50;15.57;;;;;;;24.39;50.49;96972.16;4978881;28;20049;-69
2021/06/07 06:09:24;;;;;;;9.07;8.38;;;;;;;24.75;49.76;97017.75;4983468;28;20041;-66
2021/06/07 06:11:49;;;;;;;9.00;8.30;;;;;;;25.04;48.82;97023.84;4986578;28;20076;-58
2021/06/07 06:14:15;;;;;;;9.23;8.23;;;;;;;25.35;48.33;97035.19;4988097;28;20046;-64
2021/06/07 06:16:40;;;;;;;9.52;8.63;;;;;;;25.43;47.90;97027.16;4985461;28;20044;-65
2021/06/07 06:19:06;;;;;;;8.80;8.10;;;;;;;25.69;47.39;97051.19;4985820;28;20085;-66
2021/06/07 06:21:33;;;;;;;9.43;8.63;;;;;;;25.74;47.74;97047.72;4985266;28;20144;-61
2021/06/07 06:23:59;;;;;;;8.98;8.18;;;;;;;25.77;47.37;97041.88;4985389;28;20100;-61
2021/06/07 06:26:25;;;;;;;8.95;8.23;;;;;;;25.97;47.30;97047.13;4985223;28;20038;-59
2021/06/07 06:28:50;;;;;;;9.63;8.63;;;;;;;25.10;47.50;96908.56;4983756;28;20362;-68
2021/06/07 06:31:17;;;;;;;11.02;8.82;;;;;;;25.55;48.51;97006.38;4986085;28;20572;-60
2021/06/07 06:33:43;;;;;;;12.98;8.77;;;;;;;25.90;48.83;97039.72;4985647;28;20517;-69
2021/06/07 06:36:09;;;;;;;10.38;9.43;;;;;;;25.61;49.26;97032.88;4987426;28;20049;-61
2021/06/07 06:38:36;;;;;;;15.15;8.63;;;;;;;25.48;48.20;96981.97;4987382;28;20525;-70
2021/06/07 06:41:04;;;;;;;12.57;9.30;;;;;;;25.64;48.35;97009.25;4987281;28;20389;-66
2021/06/07 06:43:30;;;;;;;10.18;9.23;;;;;;;26.06;50.08;97052.84;4986879;28;20030;-65
2021/06/07 06:45:55;;;;;;;11.23;10.10;;;;;;;26.14;50.30;97048.41;4986896;28;20057;-67
2021/06/07 06:48:21;;;;;;;9.48;8.48;;;;;;;26.22;49.41;97055.38;4987680;28;20118;-66
2021/06/07 06:50:47;;;;;;;13.50;12.15;;;;;;;26.24;48.21;97045.09;4984306;28;20505;-60
2021/06/07 06:53:16;;;;;;;10.48;9.68;;;;;;;26.24;48.04;97052.84;4986649;28;20561;-60
2021/06/07 06:55:44;;;;;;;10.07;9.18;;;;;;;25.92;50.33;97048.53;4985728;28;20443;-61
2021/06/07 06:58:10;;;;;;;10.00;9.10;;;;;;;25.73;49.08;97024.25;4985163;28;20087;-66
2021/06/07 07:00:37;;;;;;;10.65;9.75;;;;;;;25.86;50.43;97055.31;4986700;28;20093;-57
2021/06/07 07:03:24;;;;;;;10.52;9.50;;;;;;;25.54;51.68;97019.78;4986473;28;20412;-68
2021/06/07 07:05:50;;;;;;;11.30;9.18;;;;;;;25.51;52.60;97051.13;4986140;28;20069;-66
2021/06/07 07:08:17;;;;;;;12.57;10.30;;;;;;;25.52;52.55;97052.72;4985266;28;20066;-66
2021/06/07 07:10:44;;;;;;;11.85;10.40;;;;;;;25.57;52.42;97049.25;4986333;28;20069;-60
2021/06/07 07:13:10;;;;;;;10.40;9.60;;;;;;;25.34;51.64;97041.31;4986277;28;20101;-63
2021/06/07 07:15:36;;;;;;;11.10;9.27;;;;;;;25.81;51.26;97053.09;4985807;28;20158;-60
2021/06/07 07:18:04;;;;;;;9.57;8.85;;;;;;;25.94;50.34;97056.59;4987052;28;20756;-60
2021/06/07 07:20:30;;;;;;;10.23;9.23;;;;;;;25.94;50.73;97050.91;4983624;28;20054;-57
2021/06/07 07:22:55;;;;;;;9.98;9.10;;;;;;;25.83;50.15;97022.19;4984511;28;20026;-59
2021/06/07 07:25:21;;;;;;;9.93;8.93;;;;;;;26.07;49.29;97037.38;4985397;28;20040;-61
2021/06/07 07:27:47;;;;;;;11.75;10.65;;;;;;;26.00;50.44;97049.06;4986150;28;20039;-67
2021/06/07 07:30:17;;;;;;;9.95;9.05;;;;;;;24.76;51.80;97053.31;4983899;28;20297;-67
2021/06/07 07:32:44;;;;;;;12.55;10.75;;;;;;;24.63;52.26;97004.41;4986034;28;20030;-61
2021/06/07 07:35:11;;;;;;;12.70;10.15;;;;;;;25.71;49.46;97052.28;4985214;28;20117;-62
2021/06/07 07:37:37;;;;;;;10.23;9.40;;;;;;;26.44;48.11;97056.00;4983975;28;20061;-61
2021/06/07 07:40:06;;;;;;;8.93;8.20;;;;;;;26.90;46.38;97049.00;4985528;28;20042;-73
2021/06/07 07:42:32;;;;;;;32.90;18.65;;;;;;;27.03;45.38;97035.34;4985478;28;20528;-61
2021/06/07 07:44:58;;;;;;;14.43;10.95;;;;;;;26.96;44.28;97007.25;4986026;28;20030;-71
2021/06/07 07:47:23;;;;;;;10.07;9.07;;;;;;;27.70;41.57;97049.91;4981888;28;20034;-69
2021/06/07 07:49:49;;;;;;;10.32;8.93;;;;;;;27.94;41.75;97008.03;4966892;28;20038;-59
2021/06/07 07:52:15;;;;;;;9.93;9.02;;;;;;;28.48;40.24;97051.59;4974960;28;20092;-58
2021/06/07 07:54:40;;;;;;;9.98;9.07;;;;;;;28.39;41.21;97037.41;4985396;28;20127;-66
2021/06/07 07:57:07;;;;;;;9.70;9.00;;;;;;;26.93;40.92;96820.56;4985387;28;20124;-62
2021/06/07 07:59:33;;;;;;;9.93;9.02;;;;;;;28.63;40.31;97035.31;4985200;28;20061;-57
2021/06/07 08:02:00;;;;;;;9.93;9.13;;;;;;;27.60;39.95;96888.97;4985919;28;20038;-65
2021/06/07 08:04:26;;;;;;;11.77;9.43;;;;;;;28.62;39.97;97053.69;4985892;28;20468;-62
2021/06/07 08:06:51;;;;;;;10.73;9.80;;;;;;;28.94;39.60;97047.03;4985858;28;20030;-62
2021/06/07 08:09:17;;;;;;;11.00;9.65;;;;;;;28.69;39.05;96970.63;4985079;28;20026;-58
2021/06/07 08:11:42;;;;;;;9.85;8.90;;;;;;;28.58;38.98;96956.94;4984969;28;20034;-63
2021/06/07 08:14:08;;;;;;;10.02;9.15;;;;;;;29.43;38.33;97049.94;4985216;28;20031;-57
2021/06/07 08:16:33;;;;;;;9.63;8.93;;;;;;;29.46;38.50;97051.81;4985915;28;20042;-65
2021/06/07 08:18:58;;;;;;;10.00;9.23;;;;;;;29.48;37.88;97029.25;4983757;28;20030;-65
2021/06/07 08:21:24;;;;;;;9.70;8.85;;;;;;;29.65;37.70;97053.16;4985711;28;20061;-60
2021/06/07 08:23:50;;;;;;;8.90;8.07;;;;;;;29.51;37.73;97045.41;4985579;28;20464;-64
2021/06/07 08:26:15;;;;;;;8.63;7.93;;;;;;;29.90;36.83;97046.78;4999630;28;20037;-59
2021/06/07 08:28:41;;;;;;;9.43;8.63;;;;;;;29.39;36.52;97018.75;4984781;28;20085;-59
2021/06/07 08:31:07;;;;;;;9.07;8.27;;;;;;;28.92;36.48;97001.06;4982194;28;20485;-66
2021/06/07 08:33:35;;;;;;;11.13;8.80;;;;;;;29.35;36.12;97052.41;4985290;28;20034;-71
2021/06/07 08:36:05;;;;;;;9.63;8.68;;;;;;;28.84;37.65;97049.19;4974009;28;20856;-65
2021/06/07 08:38:30;;;;;;;8.43;7.70;;;;;;;29.04;37.39;97051.31;4999823;28;20076;-61
2021/06/07 08:40:56;;;;;;;9.45;8.75;;;;;;;28.90;36.65;97015.84;4984751;28;20112;-59
2021/06/07 08:43:23;;;;;;;9.65;8.65;;;;;;;29.25;36.87;97053.00;4984772;28;20038;-61
2021/06/07 08:45:49;;;;;;;9.48;8.57;;;;;;;29.29;36.68;97050.75;4985013;28;20031;-70
2021/06/07 08:48:15;;;;;;;9.32;8.57;;;;;;;29.34;35.85;97041.47;4983155;28;20034;-57
2021/06/07 08:50:41;;;;;;;8.52;7.78;;;;;;;27.94;35.64;96797.28;4984617;28;20030;-71
2021/06/07 08:53:07;;;;;;;8.93;8.10;;;;;;;29.44;34.48;97009.47;4984471;28;20046;-62
2021/06/07 08:55:34;;;;;;;8.55;7.80;;;;;;;29.58;35.26;97042.91;4984722;28;20042;-59
2021/06/07 08:58:02;;;;;;;8.88;8.18;;;;;;;27.67;35.08;96760.50;4983218;28;20057;-58
2021/06/07 09:00:30;;;;;;;9.10;8.43;;;;;;;29.50;35.57;97040.94;4983960;28;20432;-60
2021/06/07 09:03:15;;;;;;;8.68;7.97;;;;;;;29.48;35.75;97043.53;4983614;28;20037;-56
2021/06/07 09:05:43;;;;;;;192.43;21.58;;;;;;;29.48;36.63;97035.75;4983766;28;20049;-70
2021/06/07 09:08:11;;;;;;;9.05;8.35;;;;;;;29.25;37.06;97030.97;4984498;28;20112;-59
2021/06/07 09:10:49;;;;;;;8.30;7.68;;;;;;;29.15;38.10;97040.16;4983901;28;20046;-61
2021/06/07 09:13:16;;;;;;;9.10;8.50;;;;;;;29.01;39.12;97027.44;4984305;28;20046;-61
2021/06/07 09:15:50;;;;;;;8.82;8.25;;;;;;;28.81;39.70;97029.41;4982560;28;20042;-58
2021/06/07 09:18:37;;;;;;;8.30;7.80;;;;;;;29.09;39.40;97022.13;4984153;28;20026;-67
2021/06/07 09:21:18;;;;;;;9.50;8.70;;;;;;;29.66;39.50;97020.47;4981202;28;20592;-67
2021/06/07 09:23:55;;;;;;;9.10;8.32;;;;;;;29.76;38.48;97029.69;4971163;28;20031;-60
2021/06/07 09:26:30;;;;;;;8.70;8.00;;;;;;;30.08;36.94;97029.31;4964858;28;20113;-70
2021/06/07 09:28:58;;;;;;;9.00;8.40;;;;;;;30.40;37.55;97031.06;4963456;28;20023;-66
2021/06/07 09:31:29;;;;;;;9.00;8.20;;;;;;;30.42;37.38;97031.34;4972914;28;20060;-72
2021/06/07 09:33:55;;;;;;;8.60;8.10;;;;;;;30.26;37.90;97029.06;4982786;28;20037;-59
2021/06/07 09:36:28;;;;;;;8.35;7.75;;;;;;;30.44;37.51;97022.25;4983658;28;20585;-69
2021/06/07 09:39:27;;;;;;;8.65;7.95;;;;;;;29.66;38.06;96911.94;4982803;28;20459;-70
2021/06/07 09:42:01;;;;;;;8.82;8.20;;;;;;;30.26;37.76;97011.94;4982381;28;20058;-71
2021/06/07 09:44:31;;;;;;;9.18;8.57;;;;;;;30.27;37.85;97018.44;4984619;28;20546;-58
2021/06/07 09:47:14;;;;;;;9.70;8.77;;;;;;;30.16;37.45;97004.75;4998693;28;20947;-59
2021/06/07 09:49:49;;;;;;;8.82;8.05;;;;;;;29.93;38.14;97011.47;4984286;28;20023;-70
2021/06/07 09:52:21;;;;;;;9.38;8.70;;;;;;;29.35;37.90;96994.53;4984237;28;20117;-60
2021/06/07 09:55:06;;;;;;;8.32;7.80;;;;;;;29.09;39.73;97000.09;4983782;28;20418;-59
2021/06/07 09:57:58;;;;;;;9.50;8.70;;;;;;;29.03;38.78;96995.56;4999438;28;20501;-60
2021/06/07 10:00:51;;;;;;;8.93;8.23;;;;;;;28.73;38.37;96994.00;4984219;28;20042;-68
2021/06/07 10:03:48;;;;;;;8.25;7.65;;;;;;;28.23;39.95;96983.72;4982412;28;20154;-58
2021/06/07 10:06:35;;;;;;;8.15;7.55;;;;;;;28.04;38.44;96898.41;4982173;28;20050;-59
2021/06/07 10:09:01;;;;;;;8.55;7.88;;;;;;;28.64;37.27;96985.56;4984131;28;20031;-58
2021/06/07 10:11:32;;;;;;;8.70;7.95;;;;;;;29.09;37.16;96979.34;4982068;28;20042;-61
2021/06/07 10:14:18;;;;;;;7.97;7.38;;;;;;;29.43;34.96;96975.72;4984295;28;20500;-69
2021/06/07 10:17:10;;;;;;;8.65;8.00;;;;;;;29.64;33.50;96983.03;4982561;28;20450;-68
2021/06/07 10:22:12;;;;;;;8.63;7.80;;;;;;;29.57;32.88;96937.75;4983630;28;20568;-60
2021/06/07 10:24:37;;;;;;;8.98;8.38;;;;;;;29.81;32.85;96960.41;4983749;28;20101;-69
2021/06/07 10:27:03;;;;;;;7.88;7.43;;;;;;;30.29;33.11;96956.59;4983825;28;20034;-60
2021/06/07 10:29:42;;;;;;;7.85;7.25;;;;;;;30.41;31.83;96958.31;4982171;28;20033;-69
2021/06/07 10:32:21;;;;;;;8.63;7.50;;;;;;;30.78;32.16;96955.53;4983782;28;20124;-69
2021/06/07 10:34:48;;;;;;;8.40;7.65;;;;;;;30.62;32.70;96959.78;4983926;28;20104;-69
2021/06/07 10:37:14;;;;;;;8.07;7.50;;;;;;;30.51;31.96;96961.75;4982361;28;20042;-66
2021/06/07 10:39:40;;;;;;;8.98;8.27;;;;;;;30.68;33.39;96960.63;4983640;28;20056;-67
2021/06/07 10:42:08;;;;;;;8.23;7.47;;;;;;;30.92;32.02;96961.13;4983449;28;20046;-67
2021/06/07 10:44:34;;;;;;;9.60;8.93;;;;;;;31.02;32.81;96963.81;4983301;28;20330;-58
2021/06/07 10:47:06;;;;;;;8.35;7.75;;;;;;;31.20;32.00;96952.78;4983614;28;20030;-59
2021/06/07 10:49:38;;;;;;;12.65;7.93;;;;;;;30.75;32.47;96954.47;4983759;28;20065;-58
2021/06/07 10:52:19;;;;;;;8.93;8.13;;;;;;;30.02;34.08;96939.91;4986429;28;20054;-58
2021/06/07 10:54:54;;;;;;;8.98;8.07;;;;;;;30.22;34.97;96953.41;4987469;28;20034;-59
2021/06/07 10:57:25;;;;;;;9.00;8.40;;;;;;;30.61;34.27;96946.78;4987602;28;20391;-59
2021/06/07 11:00:07;;;;;;;10.55;8.25;;;;;;;29.71;33.81;96885.53;4987959;28;20041;-58
2021/06/07 11:02:37;;;;;;;9.20;8.35;;;;;;;29.99;32.97;96946.63;4987240;28;20038;-60
2021/06/07 11:05:22;;;;;;;8.43;7.72;;;;;;;29.72;33.22;96952.00;4987028;28;20034;-66
2021/06/07 11:08:07;;;;;;;7.78;7.18;;;;;;;29.17;32.76;96949.91;4985687;28;20046;-69
2021/06/07 11:10:43;;;;;;;9.13;8.27;;;;;;;28.99;34.45;96937.94;4985635;28;20065;-57
2021/06/07 11:13:10;;;;;;;7.85;7.32;;;;;;;28.78;35.03;96922.81;4968057;28;20644;-60
2021/06/07 11:15:42;;;;;;;9.57;8.25;;;;;;;28.88;35.43;96909.22;4980527;28;20531;-68
2021/06/07 11:18:23;;;;;;;9.13;7.90;;;;;;;28.78;38.29;96957.03;4966174;28;20031;-69
2021/06/07 11:20:51;;;;;;;9.75;8.85;;;;;;;28.11;41.36;96957.06;4967114;28;20133;-68
2021/06/07 11:23:19;;;;;;;9.57;8.13;;;;;;;27.57;44.11;96966.81;4967447;28;20042;-69
2021/06/07 11:25:51;;;;;;;9.50;8.50;;;;;;;26.81;49.66;96977.91;4966692;28;20042;-61
2021/06/07 11:28:29;;;;;;;9.93;8.37;;;;;;;23.94;51.51;96680.38;4966838;28;20093;-68
2021/06/07 11:30:56;;;;;;;14.60;8.85;;;;;;;24.15;57.03;96877.66;4967012;28;20448;-67
2021/06/07 11:33:21;;;;;;;15.75;10.88;;;;;;;23.41;67.00;96947.50;4965418;28;20043;-66
2021/06/07 11:35:47;;;;;;;23.40;12.38;;;;;;;22.99;75.15;97002.59;4967173;28;20046;-66